sensor_id;sensor_type;location;lat;lon;timestamp;temperature;humidity
1626;DHT22;806;48.770;9.156;2023-05-28T00:00:00;16.80;99.90
1626;DHT22;806;48.770;9.156;2023-05-28T00:02:28;16.80;99.90
1626;DHT22;806;48.770;9.156;2023-05-28T00:04:55;16.80;99.90
1626;DHT22;806;48.770;9.156;2023-05-28T00:07:22;16.80;99.90
1626;DHT22;806;48.770;9.156;2023-05-28T00:09:50;16.90;99.90
1626;DHT22;806;48.770;9.156;2023-05-28T00:12:17;16.80;99.90
1626;DHT22;806;48.770;9.156;2023-05-28T00:14:43;16.70;99.90
1626;DHT22;806;48.770;9.156;2023-05-28T00:17:12;16.70;99.90
1626;DHT22;806;48.770;9.156;2023-05-28T00:19:41;16.70;99.90
1626;DHT22;806;48.770;9.156;2023-05-28T00:22:08;16.70;99.90
1626;DHT22;806;48.770;9.156;2023-05-28T00:24:35;16.70;99.90
1626;DHT22;806;48.770;9.156;2023-05-28T00:27:02;16.70;99.90
1626;DHT22;806;48.770;9.156;2023-05-28T00:29:29;16.60;99.90
1626;DHT22;806;48.770;9.156;2023-05-28T00:31:56;16.60;99.90
1626;DHT22;806;48.770;9.156;2023-05-28T00:34:24;16.60;99.90
1626;DHT22;806;48.770;9.156;2023-05-28T00:36:53;16.40;99.90
1626;DHT22;806;48.770;9.156;2023-05-28T00:39:20;16.50;99.90
1626;DHT22;806;48.770;9.156;2023-05-28T00:41:47;16.50;99.90
1626;DHT22;806;48.770;9.156;2023-05-28T00:44:14;16.50;99.90
1626;DHT22;806;48.770;9.156;2023-05-28T00:46:44;16.50;99.90
1626;DHT22;806;48.770;9.156;2023-05-28T00:49:12;16.40;99.90
1626;DHT22;806;48.770;9.156;2023-05-28T00:51:39;16.30;99.90
1626;DHT22;806;48.770;9.156;2023-05-28T00:54:08;16.30;99.90
1626;DHT22;806;48.770;9.156;2023-05-28T00:56:37;16.30;99.90
1626;DHT22;806;48.770;9.156;2023-05-28T00:59:04;16.30;99.90
1626;DHT22;806;48.770;9.156;2023-05-28T01:01:32;16.30;99.90
1626;DHT22;806;48.770;9.156;2023-05-28T01:03:59;16.30;99.90
1626;DHT22;806;48.770;9.156;2023-05-28T01:06:27;16.20;99.90
1626;DHT22;806;48.770;9.156;2023-05-28T01:08:55;16.20;99.90
1626;DHT22;806;48.770;9.156;2023-05-28T01:11:24;16.10;99.90
1626;DHT22;806;48.770;9.156;2023-05-28T01:13:52;16.10;99.90
1626;DHT22;806;48.770;9.156;2023-05-28T01:16:20;16.10;99.90
1626;DHT22;806;48.770;9.156;2023-05-28T01:18:48;16.20;99.90
1626;DHT22;806;48.770;9.156;2023-05-28T01:21:15;16.20;99.90
1626;DHT22;806;48.770;9.156;2023-05-28T01:23:45;16.10;99.90
1626;DHT22;806;48.770;9.156;2023-05-28T01:26:14;16.00;99.90
1626;DHT22;806;48.770;9.156;2023-05-28T01:28:43;16.00;99.90
1626;DHT22;806;48.770;9.156;2023-05-28T01:31:11;16.00;99.90
1626;DHT22;806;48.770;9.156;2023-05-28T01:33:38;16.00;99.90
1626;DHT22;806;48.770;9.156;2023-05-28T01:36:10;16.00;99.90
1626;DHT22;806;48.770;9.156;2023-05-28T01:38:39;16.00;99.90
1626;DHT22;806;48.770;9.156;2023-05-28T01:41:11;16.00;99.90
1626;DHT22;806;48.770;9.156;2023-05-28T01:43:38;16.00;99.90
1626;DHT22;806;48.770;9.156;2023-05-28T01:46:06;15.90;99.90
1626;DHT22;806;48.770;9.156;2023-05-28T01:48:34;15.90;99.90
1626;DHT22;806;48.770;9.156;2023-05-28T01:51:01;15.90;99.90
1626;DHT22;806;48.770;9.156;2023-05-28T01:53:28;15.90;99.90
1626;DHT22;806;48.770;9.156;2023-05-28T01:55:55;15.90;99.90
1626;DHT22;806;48.770;9.156;2023-05-28T01:58:24;15.90;99.90
1626;DHT22;806;48.770;9.156;2023-05-28T02:01:04;15.80;99.90
1626;DHT22;806;48.770;9.156;2023-05-28T02:03:34;15.90;99.90
1626;DHT22;806;48.770;9.156;2023-05-28T02:06:01;15.80;99.90
1626;DHT22;806;48.770;9.156;2023-05-28T02:08:28;15.70;99.90
1626;DHT22;806;48.770;9.156;2023-05-28T02:10:55;15.70;99.90
1626;DHT22;806;48.770;9.156;2023-05-28T02:13:22;15.80;99.90
1626;DHT22;806;48.770;9.156;2023-05-28T02:15:50;15.70;99.90
1626;DHT22;806;48.770;9.156;2023-05-28T02:18:17;15.80;99.90
1626;DHT22;806;48.770;9.156;2023-05-28T02:20:44;15.80;99.90
1626;DHT22;806;48.770;9.156;2023-05-28T02:23:11;15.70;99.90
1626;DHT22;806;48.770;9.156;2023-05-28T02:25:38;15.60;99.90
1626;DHT22;806;48.770;9.156;2023-05-28T02:28:05;15.70;99.90
1626;DHT22;806;48.770;9.156;2023-05-28T02:30:32;15.70;99.90
1626;DHT22;806;48.770;9.156;2023-05-28T02:33:00;15.70;99.90
1626;DHT22;806;48.770;9.156;2023-05-28T02:35:27;15.70;99.90
1626;DHT22;806;48.770;9.156;2023-05-28T02:37:54;15.50;99.90
1626;DHT22;806;48.770;9.156;2023-05-28T02:40:21;15.40;99.90
1626;DHT22;806;48.770;9.156;2023-05-28T02:42:48;15.40;99.90
1626;DHT22;806;48.770;9.156;2023-05-28T02:45:15;15.40;99.90
1626;DHT22;806;48.770;9.156;2023-05-28T02:47:42;15.50;99.90
1626;DHT22;806;48.770;9.156;2023-05-28T02:50:11;15.50;99.90
1626;DHT22;806;48.770;9.156;2023-05-28T02:52:38;15.50;99.90
1626;DHT22;806;48.770;9.156;2023-05-28T02:55:06;15.40;99.90
1626;DHT22;806;48.770;9.156;2023-05-28T02:57:33;15.40;99.90
1626;DHT22;806;48.770;9.156;2023-05-28T03:00:01;15.20;99.90
1626;DHT22;806;48.770;9.156;2023-05-28T03:02:28;15.30;99.90
1626;DHT22;806;48.770;9.156;2023-05-28T03:04:55;15.40;99.90
1626;DHT22;806;48.770;9.156;2023-05-28T03:07:24;15.20;99.90
1626;DHT22;806;48.770;9.156;2023-05-28T03:09:51;15.20;99.90
1626;DHT22;806;48.770;9.156;2023-05-28T03:12:18;15.20;99.90
1626;DHT22;806;48.770;9.156;2023-05-28T03:14:45;15.10;99.90
1626;DHT22;806;48.770;9.156;2023-05-28T03:17:12;15.10;99.90
1626;DHT22;806;48.770;9.156;2023-05-28T03:19:38;15.10;99.90
1626;DHT22;806;48.770;9.156;2023-05-28T03:22:06;15.10;99.90
1626;DHT22;806;48.770;9.156;2023-05-28T03:24:34;15.10;99.90
1626;DHT22;806;48.770;9.156;2023-05-28T03:27:02;15.10;99.90
1626;DHT22;806;48.770;9.156;2023-05-28T03:29:29;15.10;99.90
1626;DHT22;806;48.770;9.156;2023-05-28T03:31:56;15.10;99.90
1626;DHT22;806;48.770;9.156;2023-05-28T03:34:23;15.10;99.90
1626;DHT22;806;48.770;9.156;2023-05-28T03:36:50;15.00;99.90
1626;DHT22;806;48.770;9.156;2023-05-28T03:39:17;15.10;99.90
1626;DHT22;806;48.770;9.156;2023-05-28T03:41:46;15.10;99.90
1626;DHT22;806;48.770;9.156;2023-05-28T03:44:14;15.10;99.90
1626;DHT22;806;48.770;9.156;2023-05-28T03:46:43;15.10;99.90
1626;DHT22;806;48.770;9.156;2023-05-28T03:49:10;15.00;99.90
1626;DHT22;806;48.770;9.156;2023-05-28T03:51:37;15.10;99.90
1626;DHT22;806;48.770;9.156;2023-05-28T03:54:04;15.20;99.90
1626;DHT22;806;48.770;9.156;2023-05-28T03:56:31;15.20;99.90
1626;DHT22;806;48.770;9.156;2023-05-28T03:59:00;15.30;99.90
1626;DHT22;806;48.770;9.156;2023-05-28T04:01:27;15.10;99.90
1626;DHT22;806;48.770;9.156;2023-05-28T04:03:54;15.00;99.90
1626;DHT22;806;48.770;9.156;2023-05-28T04:06:22;14.90;99.90
1626;DHT22;806;48.770;9.156;2023-05-28T04:08:49;14.90;99.90
1626;DHT22;806;48.770;9.156;2023-05-28T04:11:16;15.00;99.90
1626;DHT22;806;48.770;9.156;2023-05-28T04:13:43;15.00;99.90
1626;DHT22;806;48.770;9.156;2023-05-28T04:16:11;15.10;99.90
1626;DHT22;806;48.770;9.156;2023-05-28T04:18:39;15.10;99.90
1626;DHT22;806;48.770;9.156;2023-05-28T04:21:06;15.10;99.90
1626;DHT22;806;48.770;9.156;2023-05-28T04:23:33;15.10;99.90
1626;DHT22;806;48.770;9.156;2023-05-28T04:26:00;15.00;99.90
1626;DHT22;806;48.770;9.156;2023-05-28T04:28:27;15.00;99.90
1626;DHT22;806;48.770;9.156;2023-05-28T04:30:54;15.20;99.90
1626;DHT22;806;48.770;9.156;2023-05-28T04:33:27;15.10;99.90
1626;DHT22;806;48.770;9.156;2023-05-28T04:35:55;15.20;99.90
1626;DHT22;806;48.770;9.156;2023-05-28T04:38:23;15.20;99.90
1626;DHT22;806;48.770;9.156;2023-05-28T04:40:50;15.20;99.90
1626;DHT22;806;48.770;9.156;2023-05-28T04:43:18;15.10;99.90
1626;DHT22;806;48.770;9.156;2023-05-28T04:45:47;15.20;99.90
1626;DHT22;806;48.770;9.156;2023-05-28T04:48:14;15.20;99.90
1626;DHT22;806;48.770;9.156;2023-05-28T04:50:42;15.20;99.90
1626;DHT22;806;48.770;9.156;2023-05-28T04:53:09;15.20;99.90
1626;DHT22;806;48.770;9.156;2023-05-28T04:55:36;15.40;99.90
1626;DHT22;806;48.770;9.156;2023-05-28T04:58:05;15.50;99.90
1626;DHT22;806;48.770;9.156;2023-05-28T05:00:33;15.30;99.90
1626;DHT22;806;48.770;9.156;2023-05-28T05:03:00;15.30;99.90
1626;DHT22;806;48.770;9.156;2023-05-28T05:05:27;15.40;99.90
1626;DHT22;806;48.770;9.156;2023-05-28T05:07:56;15.50;99.90
1626;DHT22;806;48.770;9.156;2023-05-28T05:10:23;15.50;99.90
1626;DHT22;806;48.770;9.156;2023-05-28T05:12:50;15.50;99.90
1626;DHT22;806;48.770;9.156;2023-05-28T05:15:17;15.60;99.90
1626;DHT22;806;48.770;9.156;2023-05-28T05:17:44;15.70;99.90
1626;DHT22;806;48.770;9.156;2023-05-28T05:20:11;15.70;99.90
1626;DHT22;806;48.770;9.156;2023-05-28T05:22:38;15.70;99.90
1626;DHT22;806;48.770;9.156;2023-05-28T05:25:07;15.80;99.90
1626;DHT22;806;48.770;9.156;2023-05-28T05:27:34;15.90;99.90
1626;DHT22;806;48.770;9.156;2023-05-28T05:30:02;15.90;99.90
1626;DHT22;806;48.770;9.156;2023-05-28T05:32:29;15.80;99.90
1626;DHT22;806;48.770;9.156;2023-05-28T05:34:56;15.80;99.90
1626;DHT22;806;48.770;9.156;2023-05-28T05:37:23;15.70;99.90
1626;DHT22;806;48.770;9.156;2023-05-28T05:39:50;15.70;99.90
1626;DHT22;806;48.770;9.156;2023-05-28T05:42:19;15.70;99.90
1626;DHT22;806;48.770;9.156;2023-05-28T05:44:46;15.40;99.90
1626;DHT22;806;48.770;9.156;2023-05-28T05:47:13;15.40;99.90
1626;DHT22;806;48.770;9.156;2023-05-28T05:49:40;15.40;99.90
1626;DHT22;806;48.770;9.156;2023-05-28T05:52:07;15.40;99.90
1626;DHT22;806;48.770;9.156;2023-05-28T05:54:34;15.40;99.90
1626;DHT22;806;48.770;9.156;2023-05-28T05:57:01;15.30;99.90
1626;DHT22;806;48.770;9.156;2023-05-28T05:59:30;15.30;99.90
1626;DHT22;806;48.770;9.156;2023-05-28T06:01:57;15.40;99.90
1626;DHT22;806;48.770;9.156;2023-05-28T06:04:24;15.70;99.90
1626;DHT22;806;48.770;9.156;2023-05-28T06:06:59;15.90;99.90
1626;DHT22;806;48.770;9.156;2023-05-28T06:09:29;15.80;99.90
1626;DHT22;806;48.770;9.156;2023-05-28T06:11:57;15.90;99.90
1626;DHT22;806;48.770;9.156;2023-05-28T06:14:26;16.10;99.90
1626;DHT22;806;48.770;9.156;2023-05-28T06:16:54;16.20;99.90
1626;DHT22;806;48.770;9.156;2023-05-28T06:19:22;16.20;99.90
1626;DHT22;806;48.770;9.156;2023-05-28T06:21:49;16.10;99.90
1626;DHT22;806;48.770;9.156;2023-05-28T06:24:17;16.00;99.90
1626;DHT22;806;48.770;9.156;2023-05-28T06:26:44;15.80;99.90
1626;DHT22;806;48.770;9.156;2023-05-28T06:29:11;15.80;99.90
1626;DHT22;806;48.770;9.156;2023-05-28T06:31:38;15.90;99.90
1626;DHT22;806;48.770;9.156;2023-05-28T06:34:08;16.20;99.90
1626;DHT22;806;48.770;9.156;2023-05-28T06:36:35;16.30;99.90
1626;DHT22;806;48.770;9.156;2023-05-28T06:39:03;16.40;99.90
1626;DHT22;806;48.770;9.156;2023-05-28T06:41:31;16.70;99.90
1626;DHT22;806;48.770;9.156;2023-05-28T06:43:58;16.90;99.90
1626;DHT22;806;48.770;9.156;2023-05-28T06:46:25;17.00;99.90
1626;DHT22;806;48.770;9.156;2023-05-28T06:48:54;17.10;99.90
1626;DHT22;806;48.770;9.156;2023-05-28T06:51:22;17.20;99.90
1626;DHT22;806;48.770;9.156;2023-05-28T06:53:49;17.10;99.90
1626;DHT22;806;48.770;9.156;2023-05-28T06:56:16;17.30;99.90
1626;DHT22;806;48.770;9.156;2023-05-28T06:58:43;17.50;99.90
1626;DHT22;806;48.770;9.156;2023-05-28T07:01:11;17.60;99.90
1626;DHT22;806;48.770;9.156;2023-05-28T07:03:37;17.40;99.90
1626;DHT22;806;48.770;9.156;2023-05-28T07:06:05;17.30;99.90
1626;DHT22;806;48.770;9.156;2023-05-28T07:08:33;17.40;99.90
1626;DHT22;806;48.770;9.156;2023-05-28T07:11:00;17.40;99.90
1626;DHT22;806;48.770;9.156;2023-05-28T07:13:27;17.50;99.90
1626;DHT22;806;48.770;9.156;2023-05-28T07:15:54;17.60;99.90
1626;DHT22;806;48.770;9.156;2023-05-28T07:18:21;18.00;99.90
1626;DHT22;806;48.770;9.156;2023-05-28T07:20:49;18.10;99.90
1626;DHT22;806;48.770;9.156;2023-05-28T07:23:16;18.20;99.90
1626;DHT22;806;48.770;9.156;2023-05-28T07:25:45;18.20;99.90
1626;DHT22;806;48.770;9.156;2023-05-28T07:28:12;18.40;99.90
1626;DHT22;806;48.770;9.156;2023-05-28T07:30:41;18.50;99.90
1626;DHT22;806;48.770;9.156;2023-05-28T07:33:08;18.50;99.90
1626;DHT22;806;48.770;9.156;2023-05-28T07:35:35;18.50;99.90
1626;DHT22;806;48.770;9.156;2023-05-28T07:38:02;18.70;99.90
1626;DHT22;806;48.770;9.156;2023-05-28T07:40:29;18.90;99.90
1626;DHT22;806;48.770;9.156;2023-05-28T07:42:58;19.00;99.90
1626;DHT22;806;48.770;9.156;2023-05-28T07:45:25;19.10;99.90
1626;DHT22;806;48.770;9.156;2023-05-28T07:47:52;19.00;99.90
1626;DHT22;806;48.770;9.156;2023-05-28T07:50:19;19.00;99.90
1626;DHT22;806;48.770;9.156;2023-05-28T07:52:46;19.00;99.90
1626;DHT22;806;48.770;9.156;2023-05-28T07:55:13;18.90;99.90
1626;DHT22;806;48.770;9.156;2023-05-28T07:57:40;18.90;99.90
1626;DHT22;806;48.770;9.156;2023-05-28T08:00:09;18.90;99.90
1626;DHT22;806;48.770;9.156;2023-05-28T08:02:41;19.00;99.90
1626;DHT22;806;48.770;9.156;2023-05-28T08:05:08;19.20;99.90
1626;DHT22;806;48.770;9.156;2023-05-28T08:07:36;19.40;99.90
1626;DHT22;806;48.770;9.156;2023-05-28T08:10:03;19.30;99.90
1626;DHT22;806;48.770;9.156;2023-05-28T08:12:30;19.10;99.90
1626;DHT22;806;48.770;9.156;2023-05-28T08:14:58;19.00;99.90
1626;DHT22;806;48.770;9.156;2023-05-28T08:17:30;19.10;99.90
1626;DHT22;806;48.770;9.156;2023-05-28T08:19:57;19.40;99.90
1626;DHT22;806;48.770;9.156;2023-05-28T08:22:24;19.70;99.90
1626;DHT22;806;48.770;9.156;2023-05-28T08:24:51;19.90;99.90
1626;DHT22;806;48.770;9.156;2023-05-28T08:27:18;20.00;99.90
1626;DHT22;806;48.770;9.156;2023-05-28T08:29:47;20.10;99.90
1626;DHT22;806;48.770;9.156;2023-05-28T08:32:14;20.10;99.90
1626;DHT22;806;48.770;9.156;2023-05-28T08:34:42;20.10;99.90
1626;DHT22;806;48.770;9.156;2023-05-28T08:37:10;20.20;99.90
1626;DHT22;806;48.770;9.156;2023-05-28T08:39:37;20.20;99.90
1626;DHT22;806;48.770;9.156;2023-05-28T08:42:04;20.20;99.90
1626;DHT22;806;48.770;9.156;2023-05-28T08:44:32;20.30;99.90
1626;DHT22;806;48.770;9.156;2023-05-28T08:46:59;20.40;99.90
1626;DHT22;806;48.770;9.156;2023-05-28T08:49:30;20.40;99.90
1626;DHT22;806;48.770;9.156;2023-05-28T08:52:00;20.50;99.90
1626;DHT22;806;48.770;9.156;2023-05-28T08:54:29;20.50;99.90
1626;DHT22;806;48.770;9.156;2023-05-28T08:56:57;20.50;99.90
1626;DHT22;806;48.770;9.156;2023-05-28T08:59:25;20.60;99.90
1626;DHT22;806;48.770;9.156;2023-05-28T09:01:53;20.70;99.90
1626;DHT22;806;48.770;9.156;2023-05-28T09:04:20;20.90;99.90
1626;DHT22;806;48.770;9.156;2023-05-28T09:06:48;20.90;99.90
1626;DHT22;806;48.770;9.156;2023-05-28T09:09:18;20.90;99.90
1626;DHT22;806;48.770;9.156;2023-05-28T09:11:47;20.90;99.90
1626;DHT22;806;48.770;9.156;2023-05-28T09:14:16;21.00;99.90
1626;DHT22;806;48.770;9.156;2023-05-28T09:16:44;21.30;99.90
1626;DHT22;806;48.770;9.156;2023-05-28T09:19:15;21.60;99.90
1626;DHT22;806;48.770;9.156;2023-05-28T09:21:51;21.70;99.90
1626;DHT22;806;48.770;9.156;2023-05-28T09:24:20;21.80;99.90
1626;DHT22;806;48.770;9.156;2023-05-28T09:26:48;22.10;99.90
1626;DHT22;806;48.770;9.156;2023-05-28T09:29:16;22.20;99.90
1626;DHT22;806;48.770;9.156;2023-05-28T09:31:43;22.30;99.20
1626;DHT22;806;48.770;9.156;2023-05-28T09:34:10;22.40;99.00
1626;DHT22;806;48.770;9.156;2023-05-28T09:36:37;22.60;98.80
1626;DHT22;806;48.770;9.156;2023-05-28T09:39:06;22.60;98.00
1626;DHT22;806;48.770;9.156;2023-05-28T09:41:35;22.70;97.30
1626;DHT22;806;48.770;9.156;2023-05-28T09:44:06;22.60;97.70
1626;DHT22;806;48.770;9.156;2023-05-28T09:46:36;22.70;96.80
1626;DHT22;806;48.770;9.156;2023-05-28T09:49:04;22.60;96.20
1626;DHT22;806;48.770;9.156;2023-05-28T09:51:32;22.50;96.90
1626;DHT22;806;48.770;9.156;2023-05-28T09:54:00;22.30;96.70
1626;DHT22;806;48.770;9.156;2023-05-28T09:56:30;22.40;97.20
1626;DHT22;806;48.770;9.156;2023-05-28T09:59:00;22.70;94.80
1626;DHT22;806;48.770;9.156;2023-05-28T10:01:31;22.80;93.70
1626;DHT22;806;48.770;9.156;2023-05-28T10:04:04;23.20;93.50
1626;DHT22;806;48.770;9.156;2023-05-28T10:06:32;23.40;91.70
1626;DHT22;806;48.770;9.156;2023-05-28T10:09:00;23.50;91.10
1626;DHT22;806;48.770;9.156;2023-05-28T10:11:31;23.80;90.70
1626;DHT22;806;48.770;9.156;2023-05-28T10:14:02;24.20;89.20
1626;DHT22;806;48.770;9.156;2023-05-28T10:16:31;24.40;87.50
1626;DHT22;806;48.770;9.156;2023-05-28T10:18:58;24.80;85.70
1626;DHT22;806;48.770;9.156;2023-05-28T10:21:26;24.80;80.10
1626;DHT22;806;48.770;9.156;2023-05-28T10:23:54;24.80;81.10
1626;DHT22;806;48.770;9.156;2023-05-28T10:26:22;25.20;77.10
1626;DHT22;806;48.770;9.156;2023-05-28T10:28:53;25.20;75.80
1626;DHT22;806;48.770;9.156;2023-05-28T10:31:23;25.60;74.40
1626;DHT22;806;48.770;9.156;2023-05-28T10:33:50;25.50;72.70
1626;DHT22;806;48.770;9.156;2023-05-28T10:36:18;25.80;73.60
1626;DHT22;806;48.770;9.156;2023-05-28T10:38:46;26.00;73.00
1626;DHT22;806;48.770;9.156;2023-05-28T10:41:18;26.40;72.10
1626;DHT22;806;48.770;9.156;2023-05-28T10:43:47;26.70;70.60
1626;DHT22;806;48.770;9.156;2023-05-28T10:46:18;26.80;67.60
1626;DHT22;806;48.770;9.156;2023-05-28T10:49:17;26.50;62.50
1626;DHT22;806;48.770;9.156;2023-05-28T10:51:55;26.50;62.50
1626;DHT22;806;48.770;9.156;2023-05-28T10:54:39;26.50;62.50
1626;DHT22;806;48.770;9.156;2023-05-28T10:57:11;26.80;61.00
1626;DHT22;806;48.770;9.156;2023-05-28T10:59:42;26.60;61.30
1626;DHT22;806;48.770;9.156;2023-05-28T11:02:10;26.70;66.40
1626;DHT22;806;48.770;9.156;2023-05-28T11:04:39;26.60;66.90
1626;DHT22;806;48.770;9.156;2023-05-28T11:07:06;26.80;67.10
1626;DHT22;806;48.770;9.156;2023-05-28T11:09:34;27.30;66.10
1626;DHT22;806;48.770;9.156;2023-05-28T11:12:02;27.30;64.00
1626;DHT22;806;48.770;9.156;2023-05-28T11:14:33;27.60;62.50
1626;DHT22;806;48.770;9.156;2023-05-28T11:17:01;27.50;58.70
1626;DHT22;806;48.770;9.156;2023-05-28T11:19:28;27.40;60.00
1626;DHT22;806;48.770;9.156;2023-05-28T11:21:56;27.50;58.90
1626;DHT22;806;48.770;9.156;2023-05-28T11:24:23;27.60;58.30
1626;DHT22;806;48.770;9.156;2023-05-28T11:26:52;27.70;56.40
1626;DHT22;806;48.770;9.156;2023-05-28T11:29:19;28.00;56.80
1626;DHT22;806;48.770;9.156;2023-05-28T11:31:47;28.00;55.50
1626;DHT22;806;48.770;9.156;2023-05-28T11:34:14;27.50;56.80
1626;DHT22;806;48.770;9.156;2023-05-28T11:36:42;27.00;56.30
1626;DHT22;806;48.770;9.156;2023-05-28T11:39:10;26.70;57.50
1626;DHT22;806;48.770;9.156;2023-05-28T11:41:38;26.60;58.30
1626;DHT22;806;48.770;9.156;2023-05-28T11:44:18;26.80;58.60
1626;DHT22;806;48.770;9.156;2023-05-28T11:46:48;26.80;59.10
1626;DHT22;806;48.770;9.156;2023-05-28T11:49:15;26.40;59.40
1626;DHT22;806;48.770;9.156;2023-05-28T11:51:43;26.80;59.00
1626;DHT22;806;48.770;9.156;2023-05-28T11:54:11;27.50;57.30
1626;DHT22;806;48.770;9.156;2023-05-28T11:56:38;28.00;55.30
1626;DHT22;806;48.770;9.156;2023-05-28T11:59:05;28.40;55.50
1626;DHT22;806;48.770;9.156;2023-05-28T12:01:32;28.20;54.60
1626;DHT22;806;48.770;9.156;2023-05-28T12:04:04;28.10;54.00
1626;DHT22;806;48.770;9.156;2023-05-28T12:06:32;28.10;55.00
1626;DHT22;806;48.770;9.156;2023-05-28T12:09:03;28.20;53.40
1626;DHT22;806;48.770;9.156;2023-05-28T12:11:31;28.00;53.30
1626;DHT22;806;48.770;9.156;2023-05-28T12:14:08;28.20;53.00
1626;DHT22;806;48.770;9.156;2023-05-28T12:16:42;28.50;52.90
1626;DHT22;806;48.770;9.156;2023-05-28T12:19:12;28.70;49.30
1626;DHT22;806;48.770;9.156;2023-05-28T12:21:40;28.60;49.50
1626;DHT22;806;48.770;9.156;2023-05-28T12:24:12;29.00;49.10
1626;DHT22;806;48.770;9.156;2023-05-28T12:26:42;28.50;49.20
1626;DHT22;806;48.770;9.156;2023-05-28T12:29:09;28.60;49.10
1626;DHT22;806;48.770;9.156;2023-05-28T12:31:36;28.70;48.90
1626;DHT22;806;48.770;9.156;2023-05-28T12:34:03;28.70;49.40
1626;DHT22;806;48.770;9.156;2023-05-28T12:36:30;28.70;49.30
1626;DHT22;806;48.770;9.156;2023-05-28T12:38:58;28.70;49.80
1626;DHT22;806;48.770;9.156;2023-05-28T12:41:25;28.90;48.10
1626;DHT22;806;48.770;9.156;2023-05-28T12:43:53;29.10;48.30
1626;DHT22;806;48.770;9.156;2023-05-28T12:46:20;29.00;47.60
1626;DHT22;806;48.770;9.156;2023-05-28T12:48:47;28.80;47.60
1626;DHT22;806;48.770;9.156;2023-05-28T12:51:15;28.30;48.60
1626;DHT22;806;48.770;9.156;2023-05-28T12:53:42;28.10;49.10
1626;DHT22;806;48.770;9.156;2023-05-28T12:56:09;28.40;48.90
1626;DHT22;806;48.770;9.156;2023-05-28T12:58:36;28.60;48.30
1626;DHT22;806;48.770;9.156;2023-05-28T13:01:04;28.70;48.30
1626;DHT22;806;48.770;9.156;2023-05-28T13:03:31;29.10;47.10
1626;DHT22;806;48.770;9.156;2023-05-28T13:05:58;29.50;45.60
1626;DHT22;806;48.770;9.156;2023-05-28T13:08:26;29.80;45.50
1626;DHT22;806;48.770;9.156;2023-05-28T13:10:53;29.80;46.40
1626;DHT22;806;48.770;9.156;2023-05-28T13:13:20;29.80;45.50
1626;DHT22;806;48.770;9.156;2023-05-28T13:15:47;29.30;44.70
1626;DHT22;806;48.770;9.156;2023-05-28T13:18:15;29.10;44.90
1626;DHT22;806;48.770;9.156;2023-05-28T13:20:42;29.00;45.50
1626;DHT22;806;48.770;9.156;2023-05-28T13:23:09;29.40;44.40
1626;DHT22;806;48.770;9.156;2023-05-28T13:25:36;29.30;43.50
1626;DHT22;806;48.770;9.156;2023-05-28T13:28:03;29.40;43.60
1626;DHT22;806;48.770;9.156;2023-05-28T13:30:30;29.40;42.90
1626;DHT22;806;48.770;9.156;2023-05-28T13:32:57;29.50;43.70
1626;DHT22;806;48.770;9.156;2023-05-28T13:35:26;29.60;43.50
1626;DHT22;806;48.770;9.156;2023-05-28T13:37:53;29.30;44.10
1626;DHT22;806;48.770;9.156;2023-05-28T13:40:21;29.00;44.00
1626;DHT22;806;48.770;9.156;2023-05-28T13:42:50;29.40;43.40
1626;DHT22;806;48.770;9.156;2023-05-28T13:45:17;29.40;43.20
1626;DHT22;806;48.770;9.156;2023-05-28T13:47:44;29.40;42.40
1626;DHT22;806;48.770;9.156;2023-05-28T13:50:11;28.90;42.70
1626;DHT22;806;48.770;9.156;2023-05-28T13:52:43;28.70;43.40
1626;DHT22;806;48.770;9.156;2023-05-28T13:55:10;28.60;43.10
1626;DHT22;806;48.770;9.156;2023-05-28T13:57:37;28.70;44.00
1626;DHT22;806;48.770;9.156;2023-05-28T14:00:05;28.40;42.20
1626;DHT22;806;48.770;9.156;2023-05-28T14:02:32;28.60;42.80
1626;DHT22;806;48.770;9.156;2023-05-28T14:04:59;28.80;42.30
1626;DHT22;806;48.770;9.156;2023-05-28T14:07:26;28.60;41.70
1626;DHT22;806;48.770;9.156;2023-05-28T14:09:55;28.50;42.10
1626;DHT22;806;48.770;9.156;2023-05-28T14:12:22;28.80;42.00
1626;DHT22;806;48.770;9.156;2023-05-28T14:14:49;29.00;41.10
1626;DHT22;806;48.770;9.156;2023-05-28T14:17:16;29.00;41.00
1626;DHT22;806;48.770;9.156;2023-05-28T14:19:43;29.20;40.90
1626;DHT22;806;48.770;9.156;2023-05-28T14:22:10;29.30;40.10
1626;DHT22;806;48.770;9.156;2023-05-28T14:24:37;29.00;40.10
1626;DHT22;806;48.770;9.156;2023-05-28T14:27:05;28.50;40.20
1626;DHT22;806;48.770;9.156;2023-05-28T14:29:32;28.40;41.00
1626;DHT22;806;48.770;9.156;2023-05-28T14:31:59;28.20;41.20
1626;DHT22;806;48.770;9.156;2023-05-28T14:34:27;28.10;41.80
1626;DHT22;806;48.770;9.156;2023-05-28T14:36:54;28.30;42.70
1626;DHT22;806;48.770;9.156;2023-05-28T14:39:21;28.50;42.30
1626;DHT22;806;48.770;9.156;2023-05-28T14:41:48;28.60;41.80
1626;DHT22;806;48.770;9.156;2023-05-28T14:44:17;28.60;41.80
1626;DHT22;806;48.770;9.156;2023-05-28T14:46:44;28.50;41.60
1626;DHT22;806;48.770;9.156;2023-05-28T14:49:11;28.40;42.70
1626;DHT22;806;48.770;9.156;2023-05-28T14:51:38;28.30;42.30
1626;DHT22;806;48.770;9.156;2023-05-28T14:54:05;28.30;42.20
1626;DHT22;806;48.770;9.156;2023-05-28T14:56:32;28.10;41.60
1626;DHT22;806;48.770;9.156;2023-05-28T14:58:59;27.90;42.80
1626;DHT22;806;48.770;9.156;2023-05-28T15:01:27;27.80;42.40
1626;DHT22;806;48.770;9.156;2023-05-28T15:03:54;27.80;42.70
1626;DHT22;806;48.770;9.156;2023-05-28T15:06:21;27.50;42.90
1626;DHT22;806;48.770;9.156;2023-05-28T15:08:48;27.20;43.20
1626;DHT22;806;48.770;9.156;2023-05-28T15:11:15;27.10;43.90
1626;DHT22;806;48.770;9.156;2023-05-28T15:13:42;27.20;44.20
1626;DHT22;806;48.770;9.156;2023-05-28T15:16:09;27.30;43.80
1626;DHT22;806;48.770;9.156;2023-05-28T15:18:38;27.40;44.00
1626;DHT22;806;48.770;9.156;2023-05-28T15:21:05;27.40;43.70
1626;DHT22;806;48.770;9.156;2023-05-28T15:23:32;27.40;44.10
1626;DHT22;806;48.770;9.156;2023-05-28T15:26:00;27.20;43.80
1626;DHT22;806;48.770;9.156;2023-05-28T15:28:28;27.10;44.10
1626;DHT22;806;48.770;9.156;2023-05-28T15:30:55;27.00;44.00
1626;DHT22;806;48.770;9.156;2023-05-28T15:33:22;26.70;44.20
1626;DHT22;806;48.770;9.156;2023-05-28T15:35:51;26.60;44.20
1626;DHT22;806;48.770;9.156;2023-05-28T15:38:19;26.60;44.10
1626;DHT22;806;48.770;9.156;2023-05-28T15:40:47;26.60;44.20
1626;DHT22;806;48.770;9.156;2023-05-28T15:43:14;26.60;44.30
1626;DHT22;806;48.770;9.156;2023-05-28T15:45:41;26.50;44.10
1626;DHT22;806;48.770;9.156;2023-05-28T15:48:08;26.50;44.70
1626;DHT22;806;48.770;9.156;2023-05-28T15:50:35;26.40;44.40
1626;DHT22;806;48.770;9.156;2023-05-28T15:53:03;26.20;44.40
1626;DHT22;806;48.770;9.156;2023-05-28T15:55:31;26.20;45.30
1626;DHT22;806;48.770;9.156;2023-05-28T15:57:58;26.30;45.10
1626;DHT22;806;48.770;9.156;2023-05-28T16:00:25;26.30;44.80
1626;DHT22;806;48.770;9.156;2023-05-28T16:02:53;26.20;43.90
1626;DHT22;806;48.770;9.156;2023-05-28T16:05:22;26.10;44.10
1626;DHT22;806;48.770;9.156;2023-05-28T16:07:50;26.10;44.70
1626;DHT22;806;48.770;9.156;2023-05-28T16:10:19;26.10;44.10
1626;DHT22;806;48.770;9.156;2023-05-28T16:12:47;26.00;44.40
1626;DHT22;806;48.770;9.156;2023-05-28T16:15:15;25.80;44.40
1626;DHT22;806;48.770;9.156;2023-05-28T16:17:44;25.90;44.20
1626;DHT22;806;48.770;9.156;2023-05-28T16:20:12;25.90;44.90